Airfield :
LOGIN :

Register | Disclaimer

   EN    FR    IT 

 










Legend :    VFR   Marginal VFR   IFR   Intensive IFR   Very Intensive IFR
Visi :
Ceiling :
>= 8 km
>= 3000ft
5 to 8 km
1000 to 3000 ft
1500m to 5 km
500 to 1000 ft
800 to 1500m
200 to 500 ft
< 800m
< 200 ft
Symbols :   Thunderstorms  Fog  Heavy snow  Heavy precipitations  Wind > 20 kt
SIGMETs :     Misc.  Thunderstorms  Icing  Turbulence  Mountain Waves  Volcanic Ashes






- Airport Elevation : 424 ft
- IATA code : QGY


LHPR - Györ Per

CURRENT METAR :
  • 311845Z AUTO 14002KT CAVOK 24/18 Q1010

EXPIRED METARs :
  • 311815Z AUTO 00000KT CAVOK 26/18 Q1009
  • 311745Z AUTO 00000KT CAVOK 27/18 Q1009
  • 311715Z AUTO VRB03KT CAVOK 27/18 Q1009
  • 311645Z AUTO 32005KT 250V350 CAVOK 27/17 Q1009 NOSIG
  • 311615Z AUTO 30007KT 260V340 CAVOK 28/17 Q1009 NOSIG

TAF TAF LHPR
Valid from the 31 at 18:00 until the 01 at 03:00 UTC


311715Z 3118/0103 30006KT CAVOK
BECMG 3118/3121 16006KT
PROB30
TEMPO 3118/3121 SCT040CB
TEMPO 3121/0103 VRB16G30KT 5000 SHRA TSRA BKN030CB



MET'MAP, your aeronautical weather chart ! - Copyright ORBIFLY December 2007 - Disclaimer

ORBIFLY MET'MAP TEAM :

Programming & Development : Alexandra Zaïnal
Concept & original design : Baudouin d'Aumeries
Assistance for programming : Marc-Olivier Méhu
Technical & hardware support : Manuel Goepfert

Contact : metmap@orbifly.com




SOURCES & CREDITS :

   NOAA